createdAt,value
2023-03-11T00:00:49.541Z,98271.16
2023-03-11T00:04:05.685Z,98273.69
2023-03-11T00:07:09.772Z,98269.78
2023-03-11T00:10:35.691Z,98264.88
2023-03-11T00:13:37.573Z,98272.13
2023-03-11T00:16:52.708Z,98267.91
2023-03-11T00:20:01.458Z,98265.44
2023-03-11T00:23:11.690Z,98262.75
2023-03-11T00:30:31.750Z,98264.34
2023-03-11T00:33:46.670Z,98263.00
2023-03-11T00:36:55.821Z,98269.09
2023-03-11T00:40:04.664Z,98266.13
2023-03-11T00:43:20.666Z,98271.03
2023-03-11T00:46:35.770Z,98272.13
2023-03-11T00:49:44.681Z,98263.31
2023-03-11T00:52:53.845Z,98268.34
2023-03-11T00:56:02.687Z,98261.06
2023-03-11T00:59:11.212Z,98254.97
2023-03-11T01:02:25.703Z,98263.13
2023-03-11T01:05:41.666Z,98254.63
2023-03-11T01:08:52.673Z,98263.75
2023-03-11T01:12:07.693Z,98263.97
2023-03-11T01:15:16.531Z,98262.06
2023-03-11T01:18:32.675Z,98242.75
2023-03-11T01:21:36.165Z,98247.22
2023-03-11T01:24:50.710Z,98255.87
2023-03-11T01:28:06.667Z,98262.87
2023-03-11T01:31:15.303Z,98257.53
2023-03-11T01:34:29.684Z,98247.94
2023-03-11T01:37:38.412Z,98249.69
2023-03-11T01:40:56.688Z,98255.37
2023-03-11T01:44:11.692Z,98240.44
2023-03-11T01:47:37.998Z,98256.03
2023-03-11T01:50:56.685Z,98247.31
2023-03-11T01:54:10.664Z,98246.84
2023-03-11T01:57:21.265Z,98247.53
2023-03-11T02:00:35.679Z,98247.37
2023-03-11T02:03:47.666Z,98250.19
2023-03-11T02:06:57.053Z,98253.72
2023-03-11T02:10:12.694Z,98260.38
2023-03-11T02:13:21.648Z,98266.69
2023-03-11T02:16:29.762Z,98268.41
2023-03-11T02:20:26.688Z,98242.50
2023-03-11T02:23:55.930Z,98268.06
2023-03-11T02:27:15.661Z,98263.84
2023-03-11T02:30:24.705Z,98259.69
2023-03-11T02:33:36.667Z,98248.69
2023-03-11T02:36:47.697Z,98242.69
2023-03-11T02:40:28.760Z,98242.84
2023-03-11T02:43:46.818Z,98234.63
2023-03-11T02:47:01.736Z,98228.75
2023-03-11T02:50:04.921Z,98243.47
2023-03-11T02:53:20.673Z,98241.94
2023-03-11T02:56:22.636Z,98222.50
2023-03-11T02:59:37.693Z,98253.59
2023-03-11T03:02:46.637Z,98260.19
2023-03-11T03:05:54.698Z,98257.50
2023-03-11T03:09:09.972Z,98251.94
2023-03-11T03:12:25.699Z,98259.97
2023-03-11T03:15:40.685Z,98264.41
2023-03-11T03:18:42.877Z,98268.13
2023-03-11T03:21:57.662Z,98267.09
2023-03-11T03:29:03.732Z,98298.00
2023-03-11T03:32:12.749Z,98283.12
2023-03-11T03:35:27.677Z,98293.44
2023-03-11T03:38:35.655Z,98308.69
2023-03-11T03:41:44.584Z,98299.41
2023-03-11T03:52:54.667Z,98310.03
2023-03-11T03:56:21.371Z,98300.31
2023-03-11T03:59:35.655Z,98320.66
2023-03-11T04:02:44.680Z,98315.97
2023-03-11T04:05:59.661Z,98318.19
2023-03-11T04:13:06.678Z,98330.81
2023-03-11T04:16:30.746Z,98340.75
2023-03-11T04:19:46.696Z,98359.97
2023-03-11T04:22:48.629Z,98376.34
2023-03-11T04:26:03.666Z,98385.94
2023-03-11T04:29:11.685Z,98383.47
2023-03-11T04:32:21.098Z,98391.78
2023-03-11T04:35:29.701Z,98394.63
2023-03-11T04:38:38.302Z,98392.13
2023-03-11T04:41:46.667Z,98398.44
2023-03-11T04:45:01.679Z,98397.94
2023-03-11T04:48:03.497Z,98414.16
2023-03-11T04:51:20.010Z,98388.53
2023-03-11T04:54:28.234Z,98416.53
2023-03-11T04:57:42.674Z,98427.84
2023-03-11T05:00:50.682Z,98409.47
2023-03-11T05:04:05.660Z,98438.16
2023-03-11T05:07:14.206Z,98429.22
2023-03-11T05:10:22.767Z,98422.16
2023-03-11T05:13:37.693Z,98423.37
2023-03-11T05:16:52.928Z,98429.81
2023-03-11T05:20:07.699Z,98419.59
2023-03-11T05:23:16.650Z,98435.91
2023-03-11T05:26:31.691Z,98423.66
2023-03-11T05:29:40.663Z,98419.25
2023-03-11T05:32:57.023Z,98446.47
2023-03-11T05:36:16.681Z,98432.66
2023-03-11T05:39:18.652Z,98450.50
2023-03-11T05:42:33.708Z,98461.94
2023-03-11T05:45:42.250Z,98461.13
2023-03-11T05:48:50.699Z,98446.06
2023-03-11T05:51:59.366Z,98453.59
2023-03-11T05:55:14.678Z,98464.84
2023-03-11T05:58:16.583Z,98449.34
2023-03-11T06:01:31.651Z,98473.25
2023-03-11T06:04:33.634Z,98473.88
2023-03-11T06:07:48.656Z,98479.31
2023-03-11T06:11:11.717Z,98477.50
2023-03-11T06:14:14.717Z,98490.81
2023-03-11T06:17:36.673Z,98487.19
2023-03-11T06:20:44.671Z,98465.72
2023-03-11T06:23:59.676Z,98479.22
2023-03-11T06:27:14.656Z,98505.16
2023-03-11T06:30:24.011Z,98496.81
2023-03-11T06:33:32.662Z,98535.38
2023-03-11T06:36:47.677Z,98525.84
2023-03-11T06:39:56.266Z,98532.97
2023-03-11T06:43:04.665Z,98536.91
2023-03-11T06:46:24.679Z,98532.78
2023-03-11T06:49:33.361Z,98566.59
2023-03-11T06:52:41.666Z,98550.81
2023-03-11T06:56:23.669Z,98570.41
2023-03-11T06:59:32.210Z,98580.88
2023-03-11T07:02:40.718Z,98570.22
2023-03-11T07:05:51.369Z,98584.69
2023-03-11T07:09:06.717Z,98570.81
2023-03-11T07:12:21.660Z,98582.22
2023-03-11T07:15:36.943Z,98610.84
2023-03-11T07:18:45.658Z,98627.97
2023-03-11T07:21:54.366Z,98573.06
2023-03-11T07:25:08.666Z,98616.34
2023-03-11T07:36:24.380Z,98611.63
2023-03-11T07:39:33.658Z,98625.03
2023-03-11T07:42:42.237Z,98618.31
2023-03-11T07:45:50.679Z,98617.03
2023-03-11T07:49:01.248Z,98594.75
2023-03-11T07:52:15.675Z,98601.19
2023-03-11T07:55:18.168Z,98591.31
2023-03-11T07:58:33.668Z,98606.78
2023-03-11T08:01:41.700Z,98593.84
2023-03-11T08:04:50.502Z,98596.63
2023-03-11T08:08:05.669Z,98616.91
2023-03-11T08:11:13.674Z,98623.03
2023-03-11T08:14:35.657Z,98612.88
2023-03-11T08:17:50.672Z,98628.63
2023-03-11T08:20:59.824Z,98636.00
2023-03-11T08:24:18.671Z,98642.53
2023-03-11T08:27:20.540Z,98659.25
2023-03-11T08:30:35.673Z,98682.47
2023-03-11T08:33:46.910Z,98679.56
2023-03-11T08:40:50.689Z,98663.84
2023-03-11T08:44:06.697Z,98668.03
2023-03-11T08:47:15.304Z,98705.87
2023-03-11T08:50:29.667Z,98698.31
2023-03-11T08:53:31.567Z,98689.25
2023-03-11T08:56:46.691Z,98661.47
2023-03-11T08:59:55.581Z,98660.78
2023-03-11T09:03:11.693Z,98664.12
2023-03-11T09:06:21.677Z,98622.81
2023-03-11T09:09:36.677Z,98635.88
2023-03-11T09:12:45.498Z,98616.06
2023-03-11T09:15:57.693Z,98611.75
2023-03-11T09:19:12.696Z,98636.31
2023-03-11T09:22:21.734Z,98637.88
2023-03-11T09:29:28.673Z,98687.56
2023-03-11T09:32:43.812Z,98680.31
2023-03-11T09:35:58.682Z,98707.66
2023-03-11T09:39:08.411Z,98692.59
2023-03-11T09:42:46.675Z,98701.41
2023-03-11T09:46:20.250Z,98715.22
2023-03-11T09:50:02.674Z,98677.22
2023-03-11T09:53:29.319Z,98695.78
2023-03-11T09:56:45.661Z,98690.13
2023-03-11T09:59:55.145Z,98681.69
2023-03-11T10:03:03.760Z,98687.72
2023-03-11T10:06:17.606Z,98693.09
2023-03-11T10:09:52.701Z,98705.09
2023-03-11T10:13:21.255Z,98708.78
2023-03-11T10:17:15.645Z,98718.63
2023-03-11T10:20:27.168Z,98733.75
2023-03-11T10:24:22.705Z,98742.75
2023-03-11T10:27:31.896Z,98747.69
2023-03-11T10:31:02.681Z,98747.88
2023-03-11T10:34:20.514Z,98752.06
2023-03-11T10:38:05.686Z,98761.78
2023-03-11T10:41:39.852Z,98789.97
2023-03-11T10:44:54.697Z,98807.03
2023-03-11T10:47:57.270Z,98807.69
2023-03-11T10:51:25.688Z,98814.03
2023-03-11T10:54:44.673Z,98818.56
2023-03-11T10:57:46.608Z,98804.94
2023-03-11T11:01:20.728Z,98828.63
2023-03-11T11:04:45.686Z,98821.13
2023-03-11T11:08:22.666Z,98810.84
2023-03-11T11:11:24.957Z,98827.19
2023-03-11T11:14:54.652Z,98833.81
2023-03-11T11:18:09.663Z,98807.16
2023-03-11T11:21:51.461Z,98824.38
2023-03-11T11:25:01.709Z,98798.22
2023-03-11T11:28:25.676Z,98819.53
2023-03-11T11:31:40.661Z,98808.25
2023-03-11T11:34:49.662Z,98810.38
2023-03-11T11:38:03.321Z,98820.59
2023-03-11T11:41:24.680Z,98818.41
2023-03-11T11:44:41.749Z,98808.88
2023-03-11T12:07:48.666Z,98827.59
2023-03-11T12:11:03.692Z,98816.94
2023-03-11T12:14:41.656Z,98831.16
2023-03-11T12:17:55.956Z,98793.41
2023-03-11T12:21:30.723Z,98803.00
2023-03-11T12:25:19.692Z,98822.19
2023-03-11T12:28:40.280Z,98820.50
2023-03-11T12:31:55.683Z,98815.34
2023-03-11T12:35:32.754Z,98856.59
2023-03-11T13:02:27.711Z,98874.16
2023-03-11T13:09:34.820Z,98907.00
2023-03-11T13:12:49.878Z,98900.12
2023-03-11T13:16:31.968Z,98915.47
2023-03-11T13:19:56.690Z,98927.34
2023-03-11T13:23:01.510Z,98936.50
2023-03-11T13:34:07.546Z,98972.41
2023-03-11T13:38:05.134Z,98981.06
2023-03-11T13:41:37.410Z,98992.72
2023-03-11T13:48:50.730Z,98990.91
2023-03-11T13:52:14.645Z,98994.16
2023-03-11T13:59:53.566Z,99006.41
2023-03-11T14:03:13.441Z,98991.19
2023-03-11T14:18:33.665Z,99020.31
2023-03-11T14:22:29.087Z,99040.81
2023-03-11T14:25:43.685Z,99050.06
2023-03-11T14:28:57.840Z,99060.72
2023-03-11T14:32:47.041Z,99051.22
2023-03-11T14:36:23.680Z,99076.81
2023-03-11T14:39:27.689Z,99060.00
2023-03-11T14:42:47.667Z,99070.44
2023-03-11T14:46:03.802Z,99051.31
2023-03-11T14:53:24.677Z,99050.31
2023-03-11T14:56:46.665Z,99059.38
2023-03-11T15:04:40.665Z,99072.38
2023-03-11T15:07:57.671Z,99077.25
2023-03-11T15:11:21.653Z,99083.75
2023-03-11T15:22:36.989Z,99123.69
2023-03-11T15:30:38.019Z,99132.94
2023-03-11T15:37:44.906Z,99157.22
2023-03-11T15:40:59.918Z,99168.81
2023-03-11T15:44:08.684Z,99168.50
2023-03-11T15:47:20.311Z,99182.12
2023-03-11T15:50:50.549Z,99158.44
2023-03-11T15:54:01.482Z,99172.03
2023-03-11T15:57:47.948Z,99170.47
2023-03-11T16:00:57.842Z,99168.91
2023-03-11T16:04:06.792Z,99172.38
2023-03-11T16:07:33.013Z,99200.47
2023-03-11T16:10:47.590Z,99205.31
2023-03-11T16:14:03.680Z,99203.81
2023-03-11T16:17:18.722Z,99205.38
2023-03-11T16:21:00.798Z,99213.69
2023-03-11T16:24:22.905Z,99211.41
2023-03-11T16:27:37.638Z,99239.56
2023-03-11T16:30:40.921Z,99246.19
2023-03-11T16:33:56.632Z,99248.34
2023-03-11T16:36:59.019Z,99243.56
2023-03-11T16:40:17.914Z,99258.31
2023-03-11T16:43:20.502Z,99265.22
2023-03-11T16:46:36.704Z,99255.31
2023-03-11T16:49:39.479Z,99277.09
2023-03-11T16:52:56.095Z,99272.66
2023-03-11T16:56:04.691Z,99287.06
2023-03-11T16:59:21.003Z,99287.63
2023-03-11T17:02:24.560Z,99303.62
2023-03-11T17:05:39.723Z,99310.06
2023-03-11T17:08:58.935Z,99299.97
2023-03-11T17:12:02.181Z,99314.28
2023-03-11T17:15:19.101Z,99318.25
2023-03-11T17:18:34.933Z,99331.34
2023-03-11T17:21:57.074Z,99328.69
2023-03-11T17:24:59.738Z,99361.09
2023-03-11T17:28:16.001Z,99355.84
2023-03-11T17:31:25.065Z,99371.81
2023-03-11T17:34:34.034Z,99370.19
2023-03-11T17:37:49.011Z,99377.13
2023-03-11T17:40:58.585Z,99408.44
2023-03-11T17:44:14.988Z,99394.38
2023-03-11T17:47:17.869Z,99403.16
2023-03-11T17:50:33.020Z,99400.53
2023-03-11T17:53:50.061Z,99407.94
2023-03-11T17:57:01.127Z,99404.50
2023-03-11T18:00:11.955Z,99406.34
2023-03-11T18:03:23.049Z,99420.19
2023-03-11T18:06:37.985Z,99419.38
2023-03-11T18:09:46.847Z,99426.31
2023-03-11T18:12:55.873Z,99428.97
2023-03-11T18:16:11.303Z,99427.66
2023-03-11T18:19:19.658Z,99435.34
2023-03-11T18:22:44.413Z,99443.31
2023-03-11T18:25:55.247Z,99436.16
2023-03-11T18:29:06.069Z,99453.69
2023-03-11T18:32:14.879Z,99458.44
2023-03-11T18:35:23.738Z,99450.22
2023-03-11T18:38:33.005Z,99468.00
2023-03-11T18:41:43.107Z,99463.75
2023-03-11T18:44:53.005Z,99475.16
2023-03-11T18:48:09.074Z,99462.16
2023-03-11T18:51:17.990Z,99472.25
2023-03-11T18:54:28.176Z,99497.19
2023-03-11T18:57:44.115Z,99487.38
2023-03-11T19:00:59.026Z,99505.13
2023-03-11T19:04:07.847Z,99509.66
2023-03-11T19:07:23.088Z,99506.72
2023-03-11T19:10:25.978Z,99515.22
2023-03-11T19:13:46.977Z,99516.28
2023-03-11T19:16:57.109Z,99514.69
2023-03-11T19:20:19.085Z,99525.31
2023-03-11T19:23:34.649Z,99535.91
2023-03-11T19:26:45.784Z,99539.06
2023-03-11T19:29:55.108Z,99542.53
2023-03-11T19:33:10.870Z,99536.94
2023-03-11T19:36:15.021Z,99554.72
2023-03-11T19:39:31.214Z,99560.53
2023-03-11T19:42:34.965Z,99553.38
2023-03-11T19:45:55.021Z,99552.28
2023-03-11T19:49:11.067Z,99549.59
2023-03-11T19:52:27.112Z,99537.94
2023-03-11T19:55:29.753Z,99552.25
2023-03-11T19:58:45.661Z,99555.41
2023-03-11T20:01:55.127Z,99558.56
2023-03-11T20:05:04.174Z,99531.50
2023-03-11T20:08:14.896Z,99533.63
2023-03-11T20:11:23.913Z,99542.09
2023-03-11T20:14:40.056Z,99530.94
2023-03-11T20:17:54.988Z,99534.09
2023-03-11T20:21:13.104Z,99530.13
2023-03-11T20:24:22.106Z,99529.31
2023-03-11T20:27:37.942Z,99534.09
2023-03-11T20:30:52.976Z,99530.34
2023-03-11T20:34:09.032Z,99521.81
2023-03-11T20:37:23.925Z,99525.78
2023-03-11T20:40:26.935Z,99513.03
2023-03-11T20:43:44.147Z,99530.50
2023-03-11T20:46:46.493Z,99528.84
2023-03-11T20:50:09.190Z,99535.75
2023-03-11T20:53:12.034Z,99547.66
2023-03-11T20:56:30.178Z,99568.56
2023-03-11T20:59:38.660Z,99564.56
2023-03-11T21:02:50.078Z,99568.78
2023-03-11T21:06:04.651Z,99571.12
2023-03-11T21:09:24.901Z,99575.13
2023-03-11T21:12:33.818Z,99586.97
2023-03-11T21:15:43.812Z,99573.41
2023-03-11T21:18:59.969Z,99579.81
2023-03-11T21:22:21.805Z,99584.00
2023-03-11T21:25:23.942Z,99587.72
2023-03-11T21:28:39.960Z,99596.75
2023-03-11T21:31:48.817Z,99615.00
2023-03-11T21:35:01.204Z,99635.13
2023-03-11T21:38:16.276Z,99630.06
2023-03-11T21:41:27.366Z,99627.97
2023-03-11T21:44:35.727Z,99610.28
2023-03-11T21:47:51.823Z,99637.41
2023-03-11T21:51:06.618Z,99638.53
2023-03-11T21:54:21.785Z,99630.53
2023-03-11T21:57:36.764Z,99627.84
2023-03-11T22:00:45.601Z,99638.97
2023-03-11T22:03:54.774Z,99637.63
2023-03-11T22:07:09.698Z,99651.09
2023-03-11T22:10:19.704Z,99620.53
2023-03-11T22:13:29.666Z,99642.31
2023-03-11T22:16:44.816Z,99650.00
2023-03-11T22:19:59.592Z,99639.22
2023-03-11T22:23:07.641Z,99659.09
2023-03-11T22:26:16.300Z,99653.81
2023-03-11T22:29:31.643Z,99660.94
2023-03-11T22:32:35.338Z,99669.91
2023-03-11T22:36:01.631Z,99683.88
2023-03-11T22:39:10.600Z,99686.84
2023-03-11T22:42:19.609Z,99700.50
2023-03-11T22:45:29.632Z,99697.13
2023-03-11T22:48:38.262Z,99707.66
2023-03-11T22:51:53.624Z,99709.78
2023-03-11T22:55:02.209Z,99722.78
2023-03-11T22:58:10.640Z,99725.66
2023-03-11T23:01:19.414Z,99733.53
2023-03-11T23:04:34.606Z,99740.88
2023-03-11T23:07:36.540Z,99726.06
2023-03-11T23:10:53.605Z,99730.75
2023-03-11T23:14:08.638Z,99720.41
2023-03-11T23:17:17.164Z,99735.41
2023-03-11T23:20:25.606Z,99739.12
2023-03-11T23:23:34.202Z,99743.09
2023-03-11T23:26:48.611Z,99743.06
2023-03-11T23:30:04.607Z,99750.59
2023-03-11T23:33:13.168Z,99761.78
2023-03-11T23:36:30.610Z,99772.87
2023-03-11T23:39:45.634Z,99772.00
2023-03-11T23:42:53.647Z,99767.03
2023-03-11T23:46:02.555Z,99773.34
2023-03-11T23:49:10.641Z,99765.28
2023-03-11T23:52:19.289Z,99784.22
2023-03-11T23:55:33.608Z,99791.38
2023-03-11T23:58:35.600Z,99793.47
